createdAt,value
2016-07-17T00:00:10.580Z,0
2016-07-17T00:01:10.679Z,0
2016-07-17T00:02:10.605Z,0
2016-07-17T00:03:10.612Z,0
2016-07-17T00:04:10.605Z,0
2016-07-17T00:05:10.618Z,0
2016-07-17T00:06:10.691Z,0
2016-07-17T00:07:10.741Z,0
2016-07-17T00:08:11.013Z,0
2016-07-17T00:09:10.575Z,0
2016-07-17T00:10:10.879Z,0
2016-07-17T00:11:10.682Z,0
2016-07-17T00:12:10.630Z,0
2016-07-17T00:13:10.844Z,0
2016-07-17T00:14:10.626Z,0
2016-07-17T00:15:10.625Z,0
2016-07-17T00:16:10.624Z,0
2016-07-17T00:17:10.575Z,0
2016-07-17T00:18:10.639Z,0
2016-07-17T00:19:10.600Z,0
2016-07-17T00:20:10.609Z,0
2016-07-17T00:21:10.630Z,0
2016-07-17T00:22:10.652Z,0
2016-07-17T00:23:10.649Z,0
2016-07-17T00:24:10.611Z,0
2016-07-17T00:25:10.868Z,0
2016-07-17T00:26:10.741Z,0
2016-07-17T00:27:10.607Z,0
2016-07-17T00:28:10.626Z,0
2016-07-17T00:29:10.576Z,0
2016-07-17T00:30:10.646Z,0
2016-07-17T00:31:10.938Z,0
2016-07-17T00:32:10.841Z,0
2016-07-17T00:33:10.631Z,0
2016-07-17T00:34:10.639Z,0
2016-07-17T00:35:10.688Z,0
2016-07-17T00:36:10.649Z,0
2016-07-17T00:37:10.676Z,0
2016-07-17T00:38:10.701Z,0
2016-07-17T00:39:10.809Z,0
2016-07-17T00:40:10.710Z,0
2016-07-17T00:41:10.982Z,0
2016-07-17T00:42:10.906Z,0
2016-07-17T00:43:10.645Z,0
2016-07-17T00:44:10.648Z,0
2016-07-17T00:45:10.597Z,0
2016-07-17T00:46:11.133Z,0
2016-07-17T00:47:10.615Z,0
2016-07-17T00:48:10.621Z,0
2016-07-17T00:49:10.658Z,0
2016-07-17T00:50:11.005Z,0
2016-07-17T00:51:10.684Z,0
2016-07-17T00:52:10.617Z,0
2016-07-17T00:53:11.079Z,0
2016-07-17T00:54:10.751Z,0
2016-07-17T00:55:10.608Z,0
2016-07-17T00:56:11.199Z,0
2016-07-17T00:57:10.669Z,0
2016-07-17T00:58:10.634Z,0
2016-07-17T00:59:10.694Z,0
2016-07-17T01:00:10.643Z,0
2016-07-17T01:01:10.632Z,0
2016-07-17T01:02:11.027Z,0
2016-07-17T01:03:10.941Z,0
2016-07-17T01:04:10.719Z,0
2016-07-17T01:05:10.683Z,0
2016-07-17T01:06:10.701Z,0
2016-07-17T01:07:10.691Z,0
2016-07-17T01:08:10.691Z,0
2016-07-17T01:09:10.676Z,0
2016-07-17T01:10:10.631Z,0
2016-07-17T01:11:10.637Z,0
2016-07-17T01:12:10.637Z,0
2016-07-17T01:13:11.132Z,0
2016-07-17T01:14:10.765Z,0
2016-07-17T01:15:10.862Z,0
2016-07-17T01:16:10.613Z,0
2016-07-17T01:17:10.707Z,0
2016-07-17T01:18:10.924Z,0
2016-07-17T01:19:10.632Z,0
2016-07-17T01:20:10.711Z,0
2016-07-17T01:21:10.679Z,0
2016-07-17T01:22:10.666Z,0
2016-07-17T01:23:10.658Z,0
2016-07-17T01:24:10.637Z,0
2016-07-17T01:25:10.655Z,0
2016-07-17T01:26:10.639Z,0
2016-07-17T01:27:10.611Z,0
2016-07-17T01:28:10.768Z,0
2016-07-17T01:29:10.654Z,0
2016-07-17T01:30:10.683Z,0
2016-07-17T01:31:10.668Z,0
2016-07-17T01:32:10.629Z,0
2016-07-17T01:33:10.649Z,0
2016-07-17T01:34:10.611Z,0
2016-07-17T01:35:10.651Z,0
2016-07-17T01:36:10.766Z,0
2016-07-17T01:37:10.647Z,0
2016-07-17T01:38:10.640Z,0
2016-07-17T01:39:10.688Z,0
2016-07-17T01:40:10.688Z,0
2016-07-17T01:41:10.643Z,0
2016-07-17T01:42:10.663Z,0
2016-07-17T01:43:10.625Z,0
2016-07-17T01:44:10.855Z,0
2016-07-17T01:45:12.553Z,0
2016-07-17T01:46:11.131Z,0
2016-07-17T01:47:11.010Z,0
2016-07-17T01:48:10.872Z,0
2016-07-17T01:49:10.640Z,0
2016-07-17T01:50:10.646Z,0
2016-07-17T02:03:11.475Z,0
2016-07-17T02:03:28.499Z,0
2016-07-17T02:04:28.541Z,0
2016-07-17T02:05:28.617Z,0
2016-07-17T02:06:28.521Z,0
2016-07-17T02:07:28.940Z,0
2016-07-17T02:08:28.491Z,0
2016-07-17T02:09:28.545Z,0
2016-07-17T02:10:28.818Z,0
2016-07-17T02:11:28.496Z,0
2016-07-17T02:12:28.740Z,0
2016-07-17T02:13:28.519Z,0
2016-07-17T02:14:28.818Z,0
2016-07-17T02:15:28.501Z,0
2016-07-17T02:16:28.532Z,0
2016-07-17T02:17:28.576Z,0
2016-07-17T02:18:28.479Z,0
2016-07-17T02:19:28.531Z,0
2016-07-17T02:20:28.781Z,0
2016-07-17T02:21:28.585Z,0
2016-07-17T02:22:28.833Z,0
2016-07-17T02:23:29.050Z,0
2016-07-17T02:24:28.502Z,0
2016-07-17T02:25:28.510Z,0
2016-07-17T02:26:28.528Z,0
2016-07-17T02:27:28.499Z,0
2016-07-17T02:28:28.464Z,0
2016-07-17T02:29:28.521Z,0
2016-07-17T02:30:28.503Z,0
2016-07-17T02:31:28.516Z,0
2016-07-17T02:32:28.453Z,0
2016-07-17T02:33:28.494Z,0
2016-07-17T02:34:28.511Z,0
2016-07-17T02:35:28.586Z,0
2016-07-17T02:36:28.563Z,0
2016-07-17T02:37:29.647Z,0
2016-07-17T02:38:28.563Z,0
2016-07-17T02:39:28.589Z,0
2016-07-17T02:40:28.515Z,0
2016-07-17T02:41:28.561Z,0
2016-07-17T02:42:28.881Z,0
2016-07-17T02:43:28.566Z,0
2016-07-17T02:44:30.628Z,0
2016-07-17T02:45:28.671Z,0
2016-07-17T02:46:28.790Z,0
2016-07-17T02:47:28.592Z,0
2016-07-17T02:48:29.200Z,0
2016-07-17T02:49:28.550Z,0
2016-07-17T02:50:28.605Z,0
2016-07-17T02:51:28.545Z,0
2016-07-17T02:52:28.557Z,0
2016-07-17T02:53:28.779Z,0
2016-07-17T02:54:28.546Z,0
2016-07-17T02:55:28.663Z,0
2016-07-17T02:56:28.542Z,0
2016-07-17T02:57:28.663Z,0
2016-07-17T02:58:28.608Z,0
2016-07-17T02:59:28.700Z,0
2016-07-17T03:00:29.068Z,0
2016-07-17T03:01:29.140Z,0
2016-07-17T03:02:28.713Z,0
2016-07-17T03:03:28.510Z,0
2016-07-17T03:04:28.527Z,0
2016-07-17T03:05:28.628Z,0
2016-07-17T03:06:28.562Z,0
2016-07-17T03:07:28.592Z,0
2016-07-17T03:08:28.934Z,0
2016-07-17T03:09:28.594Z,0
2016-07-17T03:10:31.796Z,0
2016-07-17T03:11:28.637Z,0
2016-07-17T03:12:28.568Z,0
2016-07-17T03:13:28.557Z,0
2016-07-17T03:14:28.597Z,0
2016-07-17T03:15:28.607Z,0
2016-07-17T03:16:28.606Z,0
2016-07-17T03:17:28.597Z,0
2016-07-17T03:18:28.591Z,0
2016-07-17T03:19:28.565Z,0
2016-07-17T03:20:28.475Z,0
2016-07-17T03:21:28.814Z,0
2016-07-17T03:22:28.486Z,0
2016-07-17T03:23:28.679Z,0
2016-07-17T03:24:28.866Z,0
2016-07-17T03:25:28.547Z,0
2016-07-17T03:26:28.542Z,0
2016-07-17T03:27:28.671Z,0
2016-07-17T03:28:28.535Z,0
2016-07-17T03:29:28.578Z,0
2016-07-17T03:30:28.543Z,0
2016-07-17T03:31:28.689Z,0
2016-07-17T03:32:28.898Z,0
2016-07-17T03:33:28.542Z,0
2016-07-17T03:34:28.804Z,0
2016-07-17T03:35:31.215Z,0
2016-07-17T03:36:28.702Z,0
2016-07-17T03:37:28.685Z,0
2016-07-17T03:38:28.529Z,0
2016-07-17T03:51:29.425Z,5
2016-07-17T03:51:46.462Z,5
2016-07-17T03:52:46.498Z,10
2016-07-17T03:53:46.551Z,10
2016-07-17T03:54:46.500Z,10
2016-07-17T03:55:46.512Z,10
2016-07-17T03:56:46.493Z,10
2016-07-17T03:57:46.675Z,10
2016-07-17T03:58:47.399Z,10
2016-07-17T03:59:46.677Z,10
2016-07-17T04:00:46.497Z,10
2016-07-17T04:01:46.582Z,10
2016-07-17T04:02:46.736Z,10
2016-07-17T04:03:46.496Z,10
2016-07-17T04:04:46.619Z,15
2016-07-17T04:05:46.477Z,15
2016-07-17T04:06:46.663Z,15
2016-07-17T04:07:46.461Z,15
2016-07-17T04:08:46.673Z,15
2016-07-17T04:09:46.733Z,15
2016-07-17T04:10:46.558Z,15
2016-07-17T04:11:46.455Z,15
2016-07-17T04:12:46.727Z,15
2016-07-17T04:13:46.553Z,20
2016-07-17T04:26:47.398Z,25
2016-07-17T04:27:04.447Z,25
2016-07-17T04:28:04.454Z,25
2016-07-17T04:29:04.827Z,30
2016-07-17T04:30:04.520Z,30
2016-07-17T04:31:04.577Z,35
2016-07-17T04:32:06.938Z,35
2016-07-17T04:33:04.553Z,40
2016-07-17T04:34:04.622Z,40
2016-07-17T04:35:04.563Z,40
2016-07-17T04:36:04.480Z,40
2016-07-17T04:37:04.415Z,40
2016-07-17T04:38:04.507Z,45
2016-07-17T04:39:04.790Z,45
2016-07-17T04:40:05.063Z,50
2016-07-17T04:41:04.411Z,55
2016-07-17T04:42:04.532Z,60
2016-07-17T04:43:04.529Z,60
2016-07-17T04:44:04.787Z,60
2016-07-17T04:45:04.684Z,55
2016-07-17T04:46:04.581Z,60
2016-07-17T04:47:04.444Z,65
2016-07-17T04:48:04.563Z,65
2016-07-17T04:49:04.480Z,65
2016-07-17T04:50:04.457Z,65
2016-07-17T04:51:04.578Z,70
2016-07-17T04:52:04.503Z,70
2016-07-17T04:53:04.662Z,70
2016-07-17T04:54:04.720Z,75
2016-07-17T04:56:04.583Z,70
2016-07-17T04:57:04.610Z,70
2016-07-17T04:58:04.464Z,75
2016-07-17T04:59:04.466Z,85
2016-07-17T05:00:04.491Z,90
2016-07-17T05:01:04.581Z,100
2016-07-17T05:02:04.907Z,95
2016-07-17T05:03:04.905Z,95
2016-07-17T05:04:04.698Z,95
2016-07-17T05:05:05.122Z,95
2016-07-17T05:06:05.072Z,95
2016-07-17T05:07:09.508Z,100
2016-07-17T05:08:07.123Z,100
2016-07-17T05:09:04.712Z,100
2016-07-17T05:10:05.021Z,100
2016-07-17T05:11:04.474Z,100
2016-07-17T05:12:05.229Z,105
2016-07-17T05:13:04.723Z,105
2016-07-17T05:14:07.120Z,110
2016-07-17T05:15:08.185Z,115
2016-07-17T05:16:12.296Z,120
2016-07-17T05:17:04.520Z,120
2016-07-17T05:18:05.077Z,120
2016-07-17T05:19:06.804Z,120
2016-07-17T05:20:04.992Z,130
2016-07-17T05:21:04.535Z,135
2016-07-17T05:22:05.009Z,135
2016-07-17T05:23:04.626Z,130
2016-07-17T05:24:04.626Z,125
2016-07-17T05:37:12.676Z,160
2016-07-17T05:37:46.559Z,155
2016-07-17T05:38:46.418Z,155
2016-07-17T05:39:46.408Z,145
2016-07-17T05:40:46.760Z,135
2016-07-17T05:42:00.015Z,135
2016-07-17T05:42:46.252Z,135
2016-07-17T05:45:20.480Z,130
2016-07-17T05:46:02.021Z,135
2016-07-17T05:46:44.349Z,135
2016-07-17T05:47:39.175Z,135
2016-07-17T05:48:37.865Z,135
2016-07-17T05:49:37.717Z,155
2016-07-17T05:50:48.153Z,185
2016-07-17T05:51:40.964Z,205
2016-07-17T05:52:37.813Z,215
2016-07-17T05:53:37.619Z,215
2016-07-17T05:54:37.850Z,215
2016-07-17T05:55:37.701Z,195
2016-07-17T05:56:42.182Z,180
2016-07-17T05:57:37.818Z,145
2016-07-17T05:58:37.607Z,145
2016-07-17T06:00:25.980Z,140
2016-07-17T06:00:43.778Z,140
2016-07-17T06:01:43.830Z,130
2016-07-17T06:02:44.341Z,140
2016-07-17T06:03:47.331Z,140
2016-07-17T06:04:43.760Z,165
2016-07-17T06:05:46.215Z,170
2016-07-17T06:06:45.693Z,180
2016-07-17T06:07:43.711Z,200
2016-07-17T06:08:46.475Z,240
2016-07-17T06:09:45.475Z,240
2016-07-17T06:10:44.375Z,285
2016-07-17T06:11:43.202Z,265
2016-07-17T06:12:45.855Z,240
2016-07-17T06:13:43.967Z,180
2016-07-17T06:14:43.767Z,155
2016-07-17T06:15:55.530Z,155
2016-07-17T06:16:44.141Z,155
2016-07-17T06:17:43.725Z,175
2016-07-17T06:18:43.911Z,190
2016-07-17T06:19:43.705Z,200
2016-07-17T06:20:43.940Z,210
2016-07-17T06:21:43.887Z,230
2016-07-17T06:22:44.433Z,215
2016-07-17T06:23:43.881Z,190
2016-07-17T06:24:43.961Z,180
2016-07-17T06:25:44.226Z,185
2016-07-17T06:26:48.331Z,190
2016-07-17T06:27:43.890Z,180
2016-07-17T06:28:43.859Z,150
2016-07-17T06:29:44.447Z,150
2016-07-17T06:30:47.939Z,195
2016-07-17T06:31:43.785Z,240
2016-07-17T06:32:44.096Z,240
2016-07-17T06:33:43.766Z,300
2016-07-17T06:34:50.950Z,305
2016-07-17T06:35:54.191Z,245
2016-07-17T06:36:44.543Z,300
2016-07-17T06:37:44.006Z,285
2016-07-17T06:38:43.882Z,245
2016-07-17T06:39:44.261Z,230
2016-07-17T06:40:44.516Z,235
2016-07-17T06:41:44.230Z,220
2016-07-17T06:42:43.859Z,220
2016-07-17T06:44:08.672Z,210
2016-07-17T06:44:43.973Z,205
2016-07-17T06:45:43.687Z,205
2016-07-17T06:46:54.010Z,200
2016-07-17T06:47:43.714Z,220
2016-07-17T06:48:45.615Z,215
2016-07-17T06:49:43.994Z,190
2016-07-17T06:50:44.224Z,180
2016-07-17T06:51:43.794Z,165
2016-07-17T06:52:44.520Z,130
2016-07-17T06:53:43.710Z,120
2016-07-17T06:54:43.727Z,120
2016-07-17T06:55:47.114Z,130
2016-07-17T06:56:44.329Z,155
2016-07-17T06:57:43.820Z,175
2016-07-17T06:58:43.232Z,190
2016-07-17T06:59:43.814Z,205
2016-07-17T07:00:44.442Z,190
2016-07-17T07:01:53.857Z,185
2016-07-17T07:02:43.885Z,185
2016-07-17T07:03:43.785Z,185
2016-07-17T07:04:43.925Z,180
2016-07-17T07:05:49.738Z,180
2016-07-17T07:06:43.683Z,190
2016-07-17T07:07:43.810Z,195
2016-07-17T07:08:43.774Z,205
2016-07-17T07:09:49.230Z,215
2016-07-17T07:10:43.849Z,225
2016-07-17T07:11:43.742Z,235
2016-07-17T07:12:44.960Z,235
2016-07-17T07:13:55.263Z,210
2016-07-17T07:14:43.908Z,230
2016-07-17T07:16:02.083Z,215
2016-07-17T07:16:43.781Z,185
2016-07-17T07:17:43.753Z,160
2016-07-17T07:18:43.838Z,150
2016-07-17T07:19:43.947Z,150
2016-07-17T07:20:43.764Z,155
2016-07-17T07:21:43.798Z,180
2016-07-17T07:22:43.761Z,185
2016-07-17T07:23:43.886Z,205
2016-07-17T07:24:44.771Z,200
2016-07-17T07:25:43.913Z,210
2016-07-17T07:26:43.743Z,215
2016-07-17T07:27:43.887Z,230
2016-07-17T07:28:43.816Z,250
2016-07-17T07:29:43.778Z,245
2016-07-17T07:30:43.742Z,235
2016-07-17T07:31:43.742Z,255
2016-07-17T07:32:44.399Z,280
2016-07-17T07:33:44.597Z,310
2016-07-17T07:34:43.967Z,270
2016-07-17T07:35:46.440Z,310
2016-07-17T07:36:43.781Z,370
2016-07-17T07:37:56.022Z,325
2016-07-17T07:38:45.229Z,300
2016-07-17T07:39:43.764Z,355
2016-07-17T07:40:43.773Z,420
2016-07-17T07:41:43.854Z,410
2016-07-17T07:42:43.776Z,445
2016-07-17T07:43:43.759Z,335
2016-07-17T07:44:45.062Z,245
2016-07-17T07:45:43.721Z,295
2016-07-17T07:46:44.549Z,310
2016-07-17T07:47:44.531Z,290
2016-07-17T07:48:54.246Z,255
2016-07-17T07:49:44.274Z,245
2016-07-17T07:50:43.949Z,200
2016-07-17T07:51:44.208Z,195
2016-07-17T07:52:46.359Z,185
2016-07-17T07:53:43.862Z,160
2016-07-17T07:54:59.591Z,195
2016-07-17T07:55:44.185Z,225
2016-07-17T07:56:43.791Z,250
2016-07-17T07:57:44.772Z,250
2016-07-17T07:58:44.199Z,240
2016-07-17T07:59:43.829Z,225
2016-07-17T08:00:45.244Z,240
2016-07-17T08:01:44.181Z,230
2016-07-17T08:02:44.252Z,180
2016-07-17T08:03:43.921Z,195
2016-07-17T08:04:43.746Z,255
2016-07-17T08:05:44.038Z,265
2016-07-17T08:06:44.235Z,290
2016-07-17T08:07:43.853Z,270
2016-07-17T08:08:48.452Z,225
2016-07-17T08:09:44.689Z,205
2016-07-17T08:10:43.806Z,215
2016-07-17T08:11:44.001Z,290
2016-07-17T08:12:44.011Z,375
2016-07-17T08:13:44.036Z,300
2016-07-17T08:14:44.214Z,225
2016-07-17T08:15:44.347Z,215
2016-07-17T08:16:43.839Z,245
2016-07-17T08:17:45.453Z,305
2016-07-17T08:19:16.072Z,320
2016-07-17T08:19:43.861Z,325
2016-07-17T08:20:43.840Z,330
2016-07-17T08:21:49.932Z,305
2016-07-17T08:22:44.264Z,305
2016-07-17T08:23:43.788Z,305
2016-07-17T08:24:43.869Z,340
2016-07-17T08:25:43.842Z,420
2016-07-17T08:26:46.281Z,300
2016-07-17T08:27:44.457Z,275
2016-07-17T08:28:45.095Z,245
2016-07-17T08:29:44.172Z,290
2016-07-17T08:30:43.809Z,215
2016-07-17T08:31:43.990Z,270
2016-07-17T08:32:43.828Z,330
2016-07-17T08:33:45.131Z,305
2016-07-17T08:34:44.961Z,325
2016-07-17T08:35:44.172Z,360
2016-07-17T08:36:47.316Z,230
2016-07-17T08:37:44.383Z,315
2016-07-17T08:38:45.270Z,400
2016-07-17T08:39:44.938Z,415
2016-07-17T08:40:44.291Z,1150
2016-07-17T08:41:44.378Z,1825
2016-07-17T08:42:44.016Z,505
2016-07-17T08:43:44.953Z,1895
2016-07-17T08:44:43.934Z,1030
2016-07-17T08:45:45.587Z,1885
2016-07-17T08:46:43.808Z,700
2016-07-17T08:47:56.680Z,620
2016-07-17T08:48:43.878Z,1000
2016-07-17T08:49:43.870Z,1065
2016-07-17T08:50:43.873Z,690
2016-07-17T08:51:43.816Z,1760
2016-07-17T08:52:43.874Z,840
2016-07-17T08:53:43.897Z,425
2016-07-17T08:54:43.912Z,395
2016-07-17T08:55:43.764Z,385
2016-07-17T08:56:46.180Z,365
2016-07-17T08:57:49.079Z,390
2016-07-17T08:58:43.948Z,475
2016-07-17T08:59:45.275Z,445
2016-07-17T09:00:43.845Z,525
2016-07-17T09:01:44.474Z,525
2016-07-17T09:02:43.723Z,290
2016-07-17T09:03:44.007Z,215
2016-07-17T09:04:43.849Z,265
2016-07-17T09:05:43.948Z,270
2016-07-17T09:06:43.823Z,255
2016-07-17T09:07:43.812Z,210
2016-07-17T09:08:43.931Z,220
2016-07-17T09:09:45.179Z,290
2016-07-17T09:10:57.550Z,315
2016-07-17T09:11:44.788Z,325
2016-07-17T09:12:51.670Z,295
2016-07-17T09:13:44.220Z,250
2016-07-17T09:14:43.876Z,245
2016-07-17T09:15:45.392Z,255
2016-07-17T09:16:43.828Z,300
2016-07-17T09:17:43.896Z,365
2016-07-17T09:18:43.823Z,390
2016-07-17T09:19:43.809Z,535
2016-07-17T09:20:43.792Z,615
2016-07-17T09:21:43.856Z,240
2016-07-17T09:22:45.130Z,260
2016-07-17T09:23:43.958Z,720
2016-07-17T09:24:43.875Z,595
2016-07-17T09:25:44.374Z,535
2016-07-17T09:26:44.783Z,1880
2016-07-17T09:27:43.927Z,1955
2016-07-17T09:29:20.180Z,520
2016-07-17T09:29:49.231Z,690
2016-07-17T09:30:43.918Z,510
2016-07-17T09:31:46.381Z,420
2016-07-17T09:32:43.861Z,605
2016-07-17T09:33:48.236Z,1940
2016-07-17T09:34:44.314Z,545
2016-07-17T09:36:10.251Z,745
2016-07-17T09:36:43.930Z,550
2016-07-17T09:38:21.168Z,500
2016-07-17T09:38:43.933Z,550
2016-07-17T09:39:45.167Z,1125
2016-07-17T09:40:56.267Z,435
2016-07-17T09:41:43.879Z,380
2016-07-17T09:42:45.252Z,335
2016-07-17T09:43:43.834Z,365
2016-07-17T09:44:43.889Z,735
2016-07-17T09:46:35.533Z,1705
2016-07-17T09:46:56.729Z,1965
2016-07-17T09:47:52.719Z,1065
2016-07-17T09:48:52.939Z,600
2016-07-17T09:49:52.736Z,1670
2016-07-17T09:51:19.315Z,815
2016-07-17T09:51:52.682Z,925
2016-07-17T09:53:02.733Z,2030
2016-07-17T09:54:05.905Z,1585
2016-07-17T09:55:41.576Z,1155
2016-07-17T09:55:59.106Z,1280
2016-07-17T09:57:13.133Z,1305
2016-07-17T09:57:58.631Z,1580
2016-07-17T09:58:58.632Z,1125
2016-07-17T10:00:00.711Z,1590
2016-07-17T10:00:59.771Z,915
2016-07-17T10:01:59.169Z,870
2016-07-17T10:03:04.674Z,1325
2016-07-17T10:04:06.110Z,1115
2016-07-17T10:04:58.727Z,2360
2016-07-17T10:06:23.639Z,2400
2016-07-17T10:06:58.653Z,2075
2016-07-17T10:07:58.749Z,1695
2016-07-17T10:09:12.931Z,2015
2016-07-17T10:10:01.878Z,2040
2016-07-17T10:10:58.813Z,2050
2016-07-17T10:11:58.987Z,725
2016-07-17T10:12:58.684Z,585
2016-07-17T10:13:58.803Z,575
2016-07-17T10:14:58.656Z,395
2016-07-17T10:16:04.894Z,1090
2016-07-17T10:16:58.708Z,1285
2016-07-17T10:17:58.931Z,1500
2016-07-17T10:18:58.786Z,1420
2016-07-17T10:20:46.345Z,1365
2016-07-17T10:24:36.479Z,1705
2016-07-17T10:25:36.462Z,365
2016-07-17T10:26:38.123Z,490
2016-07-17T10:27:52.816Z,1710
2016-07-17T10:28:36.504Z,980
2016-07-17T10:29:36.387Z,1655
2016-07-17T10:30:37.911Z,765
2016-07-17T10:31:48.070Z,590
2016-07-17T10:32:57.654Z,470
2016-07-17T10:33:56.508Z,615
2016-07-17T10:34:51.518Z,560
2016-07-17T10:35:59.121Z,495
2016-07-17T10:37:47.817Z,1540
2016-07-17T10:38:05.018Z,1905
2016-07-17T10:39:05.228Z,2370
2016-07-17T10:40:10.944Z,635
2016-07-17T10:41:05.189Z,615
2016-07-17T10:42:08.185Z,405
2016-07-17T10:43:05.175Z,425
2016-07-17T10:44:08.861Z,640
2016-07-17T10:45:09.630Z,595
2016-07-17T10:55:09.722Z,415
2016-07-17T10:55:26.848Z,420
2016-07-17T10:56:26.845Z,490
2016-07-17T10:57:40.423Z,385
2016-07-17T10:58:33.205Z,400
2016-07-17T10:59:52.680Z,575
2016-07-17T11:00:26.985Z,660
2016-07-17T11:01:27.064Z,585
2016-07-17T11:02:27.100Z,490
2016-07-17T11:03:27.150Z,525
2016-07-17T11:04:26.882Z,1220
2016-07-17T11:05:27.092Z,1955
2016-07-17T11:06:26.953Z,1130
2016-07-17T11:07:27.442Z,580
2016-07-17T11:08:36.843Z,555
2016-07-17T11:10:00.940Z,825
2016-07-17T11:10:39.631Z,805
2016-07-17T11:11:30.150Z,590
2016-07-17T11:12:28.818Z,730
2016-07-17T11:13:27.594Z,500
2016-07-17T11:38:14.186Z,985
2016-07-17T11:38:32.392Z,495
2016-07-17T11:40:01.072Z,620
2016-07-17T11:40:45.718Z,465
2016-07-17T11:41:32.246Z,605
2016-07-17T11:42:32.142Z,1435
2016-07-17T11:44:00.735Z,2230
2016-07-17T11:44:45.860Z,1075
2016-07-17T11:45:52.108Z,1010
2016-07-17T11:46:42.348Z,510
2016-07-17T11:47:49.142Z,2105
2016-07-17T11:57:34.024Z,2170
2016-07-17T11:57:57.101Z,1920
2016-07-17T11:58:51.731Z,655
2016-07-17T12:00:24.144Z,1670
2016-07-17T12:00:57.369Z,1680
2016-07-17T12:02:15.857Z,1855
2016-07-17T12:02:52.764Z,1820
2016-07-17T12:03:51.155Z,1915
2016-07-17T12:04:51.668Z,1500
2016-07-17T12:05:51.138Z,1040
2016-07-17T12:06:51.440Z,700
2016-07-17T12:07:54.551Z,1385
2016-07-17T12:09:17.814Z,2330
2016-07-17T12:10:01.403Z,645
2016-07-17T12:10:51.126Z,745
2016-07-17T12:11:51.114Z,1085
2016-07-17T12:12:51.159Z,1250
2016-07-17T12:13:51.123Z,480
2016-07-17T12:16:27.084Z,330
2016-07-17T12:16:46.992Z,310
2016-07-17T12:17:44.211Z,320
2016-07-17T12:19:13.914Z,375
2016-07-17T12:19:44.167Z,380
2016-07-17T12:20:55.269Z,875
2016-07-17T12:33:47.566Z,2000
2016-07-17T12:34:23.066Z,2295
2016-07-17T12:35:17.834Z,445
2016-07-17T12:36:26.898Z,385
2016-07-17T12:37:25.458Z,340
2016-07-17T12:38:39.370Z,290
2016-07-17T12:39:17.415Z,815
2016-07-17T12:40:17.335Z,1750
2016-07-17T12:41:17.520Z,395
2016-07-17T12:42:17.594Z,350
2016-07-17T12:43:17.758Z,555
2016-07-17T12:44:17.849Z,2110
2016-07-17T12:46:08.550Z,1990
2016-07-17T12:46:26.776Z,2060
2016-07-17T12:48:13.330Z,1445
2016-07-17T12:48:33.683Z,1570
2016-07-17T12:49:32.679Z,450
2016-07-17T12:50:30.473Z,365
2016-07-17T12:51:36.462Z,605
2016-07-17T12:52:30.422Z,2055
2016-07-17T12:53:32.576Z,2170
2016-07-17T12:54:44.814Z,600
2016-07-17T12:55:31.441Z,605
2016-07-17T12:56:37.077Z,1885
2016-07-17T12:57:30.645Z,1820
2016-07-17T12:58:30.467Z,1940
2016-07-17T12:59:33.731Z,1915
2016-07-17T13:00:30.450Z,1810
2016-07-17T13:01:30.473Z,1855
2016-07-17T13:02:40.668Z,1940
2016-07-17T13:03:32.409Z,1950
2016-07-17T13:04:30.481Z,2015
2016-07-17T13:05:30.868Z,1975
2016-07-17T13:06:43.722Z,1775
2016-07-17T13:07:30.448Z,1705
2016-07-17T13:08:30.464Z,630
2016-07-17T13:09:30.654Z,275
2016-07-17T13:10:30.825Z,1090
2016-07-17T13:11:30.488Z,1935
2016-07-17T13:12:30.566Z,1995
2016-07-17T13:13:45.959Z,260
2016-07-17T13:14:33.862Z,245
2016-07-17T13:15:33.326Z,290
2016-07-17T13:16:30.436Z,215
2016-07-17T13:17:35.617Z,165
2016-07-17T13:18:33.248Z,150
2016-07-17T13:19:30.480Z,160
2016-07-17T13:20:32.855Z,180
2016-07-17T13:21:30.477Z,240
2016-07-17T13:22:30.475Z,255
2016-07-17T13:23:30.433Z,240
2016-07-17T13:24:32.068Z,1050
2016-07-17T13:25:36.921Z,1595
2016-07-17T13:28:43.233Z,1985
2016-07-17T13:29:00.326Z,2015
2016-07-17T13:30:00.351Z,385
2016-07-17T13:31:00.513Z,805
2016-07-17T13:32:05.632Z,1960
2016-07-17T13:33:00.380Z,360
2016-07-17T13:34:00.305Z,1715
2016-07-17T13:35:00.474Z,1600
2016-07-17T13:36:00.486Z,1615
2016-07-17T13:37:10.659Z,1735
2016-07-17T13:38:05.188Z,1760
2016-07-17T13:39:40.518Z,1715
2016-07-17T13:40:00.974Z,1730
2016-07-17T13:41:00.353Z,1685
2016-07-17T13:42:00.318Z,1735
2016-07-17T13:43:00.513Z,1725
2016-07-17T13:45:12.371Z,1780
2016-07-17T13:45:29.820Z,1815
2016-07-17T13:51:54.170Z,480
2016-07-17T13:52:11.275Z,460
2016-07-17T13:54:20.527Z,490
2016-07-17T13:59:04.718Z,270
2016-07-17T13:59:54.597Z,1850
2016-07-17T14:00:21.846Z,1920
2016-07-17T14:02:11.116Z,1920
2016-07-17T14:02:28.724Z,1830
2016-07-17T14:03:28.676Z,1800
2016-07-17T14:04:28.630Z,1650
2016-07-17T14:05:28.811Z,470
2016-07-17T14:06:28.668Z,1145
2016-07-17T14:07:38.768Z,1645
2016-07-17T14:09:10.552Z,210
2016-07-17T14:09:37.328Z,1695
2016-07-17T14:10:33.149Z,1775
2016-07-17T14:11:32.141Z,980
2016-07-17T14:12:29.248Z,290
2016-07-17T14:13:29.379Z,255
2016-07-17T14:14:36.054Z,265
2016-07-17T14:16:11.084Z,395
2016-07-17T14:16:42.141Z,395
2016-07-17T14:17:39.461Z,360
2016-07-17T14:18:39.417Z,325
2016-07-17T14:19:42.379Z,310
2016-07-17T14:20:39.403Z,270
2016-07-17T14:21:45.408Z,270
2016-07-17T14:22:40.058Z,275
2016-07-17T14:23:59.275Z,315
2016-07-17T14:24:58.589Z,305
2016-07-17T14:25:50.049Z,280
2016-07-17T14:26:55.462Z,260
2016-07-17T14:27:39.505Z,240
2016-07-17T14:28:39.436Z,190
2016-07-17T14:29:39.489Z,210
2016-07-17T14:30:39.620Z,225
2016-07-17T14:31:45.942Z,225
2016-07-17T14:32:42.669Z,245
2016-07-17T14:33:39.795Z,285
2016-07-17T14:34:40.723Z,315
2016-07-17T14:35:39.473Z,280
2016-07-17T14:36:39.533Z,220
2016-07-17T14:37:40.140Z,175
2016-07-17T14:38:40.542Z,145
2016-07-17T14:43:18.417Z,185
2016-07-17T14:43:36.863Z,165
2016-07-17T14:44:58.502Z,165
2016-07-17T14:45:54.827Z,190
2016-07-17T14:47:04.127Z,205
2016-07-17T14:51:03.446Z,180
2016-07-17T14:51:21.367Z,150
2016-07-17T14:53:01.058Z,170
2016-07-17T14:53:28.705Z,180
2016-07-17T14:54:46.808Z,180
2016-07-17T14:55:23.396Z,195
2016-07-17T14:56:35.372Z,190
2016-07-17T14:57:35.582Z,165
2016-07-17T14:58:27.257Z,160
2016-07-17T14:59:40.259Z,160
2016-07-17T15:00:31.677Z,155
2016-07-17T15:02:08.624Z,155
2016-07-17T15:02:26.365Z,155
2016-07-17T15:03:31.901Z,150
2016-07-17T15:04:41.713Z,160
2016-07-17T15:05:26.396Z,160
2016-07-17T15:06:26.125Z,165
2016-07-17T15:07:38.365Z,170
2016-07-17T15:09:13.494Z,170
2016-07-17T15:09:34.622Z,175
2016-07-17T15:10:32.385Z,175
2016-07-17T15:11:34.790Z,170
2016-07-17T15:12:35.389Z,165
2016-07-17T15:13:59.848Z,175
2016-07-17T15:14:43.103Z,180
2016-07-17T15:18:06.706Z,205
2016-07-17T15:19:18.529Z,200
2016-07-17T15:20:12.024Z,190
2016-07-17T15:23:09.805Z,220
2016-07-17T15:23:30.266Z,220
2016-07-17T15:24:41.335Z,210
2016-07-17T15:25:55.905Z,185
2016-07-17T15:26:40.242Z,160
2016-07-17T15:27:28.726Z,150
2016-07-17T15:28:29.276Z,140
2016-07-17T15:32:53.042Z,135
2016-07-17T15:34:39.528Z,155
2016-07-17T15:35:54.053Z,150
2016-07-17T15:37:30.827Z,205
2016-07-17T15:38:00.810Z,190
2016-07-17T15:38:56.737Z,195
2016-07-17T15:46:49.007Z,200
2016-07-17T15:53:05.165Z,125
2016-07-17T15:53:22.831Z,125
2016-07-17T15:54:28.751Z,135
2016-07-17T15:57:13.359Z,125
2016-07-17T15:57:34.173Z,125
2016-07-17T15:58:39.101Z,125
2016-07-17T15:59:52.395Z,120
2016-07-17T16:00:58.578Z,115
2016-07-17T16:01:44.362Z,110
2016-07-17T16:02:50.566Z,120
2016-07-17T16:04:00.632Z,110
2016-07-17T16:05:56.934Z,105
2016-07-17T16:06:45.819Z,100
2016-07-17T16:07:49.909Z,100
2016-07-17T16:08:41.150Z,105
2016-07-17T16:09:43.249Z,110
2016-07-17T16:10:43.793Z,105
2016-07-17T16:11:44.626Z,110
2016-07-17T16:12:41.768Z,105
2016-07-17T16:13:43.519Z,110
2016-07-17T16:15:05.682Z,120
2016-07-17T16:16:13.636Z,130
2016-07-17T16:17:13.584Z,135
2016-07-17T16:17:41.067Z,135
2016-07-17T16:20:52.942Z,130
2016-07-17T16:21:11.936Z,135
2016-07-17T16:22:14.550Z,135
2016-07-17T16:23:26.218Z,130